Corning, Kansas
Current Conditions -  °F | °C
As of 11:35 AM on Thursday 30 Oct 2014 (Local Time) from KMYZ Reporting Station
Clear Clear  
Wind Chill: 63°   Ceiling: Unl
Heat Index: 63°   Visibility: 10mi
Dew Point: 41°   Wind: 16mph
Humidity: 45%   Direction: 340°NNW
Pressure: 30.1"   Gusts: 20mph
Location:  39.66°N, 96.03°W
Report Text: KMYZ 301635Z AUTO 34014G17KT 10SM CLR 17/05 A3010 RMK AO2
Loading
Personal Weather Stations






























Interactive Weather Map
Tropical Storm Tracking
New forecast layout! Learn more

10-Day Weather Forecast

Advertisements
Track Severe Weather on mobile